Time;durP1;ratioP1;P1;durP2;ratioP2;P2;SDS_P1;SDS_P2;PMS_P1;PMS_P2;Temp;Humidity;BMP_temperature;BMP_pressure;BME280_temperature;BME280_humidity;BME280_pressure;Samples;Min_cycle;Max_cycle;Signal;HPM_P1;HPM_P2
2022/11/18 00:01:16;;;;;;;10.63;4.20;;;;;;;;;;4977207;28;20085;-62
2022/11/18 00:03:42;;;;;;;9.60;4.18;;;;;;;;;;4975590;28;20064;-63
2022/11/18 00:06:13;;;;;;;12.05;4.40;;;;;;;;;;4988574;28;20038;-63
2022/11/18 00:08:40;;;;;;;14.45;4.40;;;;;;;;;;4982502;28;20391;-62
2022/11/18 00:11:10;;;;;;;11.25;3.95;;;;;;;;;;4976235;28;20089;-62
2022/11/18 00:16:21;;;;;;;10.45;3.60;;;;;;;;;;4993954;28;20037;-62
2022/11/18 00:18:46;;;;;;;6.68;3.60;;;;;;;;;;4986728;28;20110;-62
2022/11/18 00:21:12;;;;;;;9.02;3.50;;;;;;;;;;4974241;28;20058;-61
2022/11/18 00:23:38;;;;;;;6.55;3.17;;;;;;;;;;4977483;28;20518;-62
2022/11/18 00:26:08;;;;;;;7.15;3.47;;;;;;;;;;4993490;28;20432;-61
2022/11/18 00:28:34;;;;;;;11.13;4.43;;;;;;;;;;4981894;28;20776;-61
2022/11/18 00:31:05;;;;;;;10.68;3.47;;;;;;;;;;4989360;28;20045;-61
2022/11/18 00:33:30;;;;;;;;;;;;;;;;;;4974753;28;20205;-61
2022/11/18 00:35:56;;;;;;;11.15;3.70;;;;;;;;;;4981028;28;20340;-61
2022/11/18 00:38:22;;;;;;;7.75;3.20;;;;;;;;;;4977487;28;20038;-62
2022/11/18 00:40:47;;;;;;;9.65;3.40;;;;;;;;;;4978125;28;20035;-62
2022/11/18 00:43:13;;;;;;;9.88;3.42;;;;;;;;;;4979029;28;20124;-62
2022/11/18 00:45:38;;;;;;;7.00;3.45;;;;;;;;;;4983737;28;20030;-62
2022/11/18 00:48:04;;;;;;;9.63;3.30;;;;;;;;;;4974172;28;20117;-61
2022/11/18 00:50:29;;;;;;;9.35;3.60;;;;;;;;;;4983959;28;20491;-62
2022/11/18 00:52:55;;;;;;;7.90;3.30;;;;;;;;;;4979353;28;20062;-62
2022/11/18 00:55:20;;;;;;;8.85;3.35;;;;;;;;;;4978246;28;20052;-62
2022/11/18 00:57:45;;;;;;;9.23;3.13;;;;;;;;;;4991165;28;20038;-63
2022/11/18 01:00:11;;;;;;;8.57;3.40;;;;;;;;;;4988789;28;20546;-62
2022/11/18 01:02:37;;;;;;;8.35;3.10;;;;;;;;;;4991121;28;20034;-62
2022/11/18 01:05:03;;;;;;;6.90;3.20;;;;;;;;;;4984679;28;20081;-62
2022/11/18 01:07:29;;;;;;;7.10;3.42;;;;;;;;;;4989341;28;20058;-62
2022/11/18 01:09:56;;;;;;;6.10;3.22;;;;;;;;;;4978350;28;20069;-62
2022/11/18 01:15:05;;;;;;;9.27;3.72;;;;;;;;;;4981113;28;20384;-62
2022/11/18 01:17:31;;;;;;;9.30;3.50;;;;;;;;;;4983125;28;20035;-61
2022/11/18 01:19:56;;;;;;;8.82;3.38;;;;;;;;;;5007479;28;20062;-61
2022/11/18 01:22:22;;;;;;;6.45;3.20;;;;;;;;;;4985379;28;20118;-62
2022/11/18 01:24:47;;;;;;;10.52;3.75;;;;;;;;;;4971730;28;20472;-61
2022/11/18 01:27:13;;;;;;;8.82;3.70;;;;;;;;;;4986917;28;20030;-61
2022/11/18 01:29:38;;;;;;;8.90;3.60;;;;;;;;;;4981524;28;20050;-61
2022/11/18 01:32:03;;;;;;;7.38;3.35;;;;;;;;;;4973594;28;20038;-61
2022/11/18 01:34:29;;;;;;;8.35;3.78;;;;;;;;;;4984463;28;20097;-61
2022/11/18 01:36:56;;;;;;;11.50;3.40;;;;;;;;;;5020661;28;20058;-61
2022/11/18 01:39:21;;;;;;;8.80;3.53;;;;;;;;;;4985566;28;20034;-61
2022/11/18 01:41:46;;;;;;;11.82;3.60;;;;;;;;;;4971872;28;20050;-62
2022/11/18 01:45:09;;;;;;;7.25;3.42;;;;;;;;;;4981051;28;20086;-62
2022/11/18 01:47:41;;;;;;;8.77;3.60;;;;;;;;;;4969623;28;20039;-62
2022/11/18 01:50:08;;;;;;;6.47;3.10;;;;;;;;;;4977223;28;20042;-61
2022/11/18 01:52:35;;;;;;;11.40;3.55;;;;;;;;;;4990448;28;20034;-62
2022/11/18 01:55:06;;;;;;;8.15;3.40;;;;;;;;;;4985019;28;20072;-62
2022/11/18 01:57:32;;;;;;;12.77;3.75;;;;;;;;;;4981354;28;20117;-61
2022/11/18 02:00:02;;;;;;;9.18;3.80;;;;;;;;;;4984787;28;20125;-60
2022/11/18 02:02:31;;;;;;;8.82;3.28;;;;;;;;;;4977667;28;20058;-60
2022/11/18 02:04:56;;;;;;;16.27;3.90;;;;;;;;;;4978890;28;20542;-61
2022/11/18 02:07:23;;;;;;;9.77;3.78;;;;;;;;;;4972305;28;20034;-61
2022/11/18 02:09:49;;;;;;;12.30;3.42;;;;;;;;;;4982784;28;20039;-60
2022/11/18 02:12:14;;;;;;;8.40;3.40;;;;;;;;;;4990966;28;20083;-61
2022/11/18 02:14:44;;;;;;;10.00;3.80;;;;;;;;;;4985442;28;20031;-61
2022/11/18 02:17:27;;;;;;;13.27;4.03;;;;;;;;;;4971184;28;20034;-60
2022/11/18 02:20:08;;;;;;;10.85;3.72;;;;;;;;;;4990292;28;20396;-61
2022/11/18 02:22:51;;;;;;;10.25;3.33;;;;;;;;;;4983798;28;20030;-61
2022/11/18 02:25:53;;;;;;;12.48;3.78;;;;;;;;;;4987330;28;20034;-61
2022/11/18 02:28:34;;;;;;;8.45;3.50;;;;;;;;;;4982810;28;20161;-61
2022/11/18 02:31:10;;;;;;;13.23;3.85;;;;;;;;;;4975301;28;20039;-60
2022/11/18 02:33:44;;;;;;;11.23;3.78;;;;;;;;;;4978398;28;20093;-61
2022/11/18 02:36:19;;;;;;;6.53;3.53;;;;;;;;;;4970306;28;20109;-61
2022/11/18 02:38:50;;;;;;;8.27;3.50;;;;;;;;;;4985045;28;20065;-61
2022/11/18 02:41:21;;;;;;;9.45;3.78;;;;;;;;;;4978584;28;20035;-60
2022/11/18 02:43:55;;;;;;;;;;;;;;;;;;4974241;28;20049;-60
2022/11/18 02:46:31;;;;;;;7.13;3.33;;;;;;;;;;4981899;28;19914;-60
2022/11/18 02:48:58;;;;;;;7.72;3.50;;;;;;;;;;4984982;28;20031;-61
2022/11/18 02:51:27;;;;;;;7.78;3.42;;;;;;;;;;4969929;28;20082;-60
2022/11/18 02:53:57;;;;;;;10.48;3.30;;;;;;;;;;4971656;28;20113;-61
2022/11/18 02:56:24;;;;;;;12.20;3.60;;;;;;;;;;4981008;28;20097;-60
2022/11/18 02:58:50;;;;;;;10.10;3.60;;;;;;;;;;4980312;28;20043;-61
2022/11/18 03:01:19;;;;;;;10.48;3.60;;;;;;;;;;4986436;28;20093;-60
2022/11/18 03:03:45;;;;;;;8.63;3.53;;;;;;;;;;4970028;28;20053;-61
2022/11/18 03:06:21;;;;;;;9.32;3.35;;;;;;;;;;4971522;28;20027;-60
2022/11/18 03:08:57;;;;;;;12.00;3.70;;;;;;;;;;4968379;28;20054;-61
2022/11/18 03:11:27;;;;;;;7.30;3.58;;;;;;;;;;4978711;28;20103;-60
2022/11/18 03:14:16;;;;;;;10.52;3.45;;;;;;;;;;4976098;28;20216;-60
2022/11/18 03:16:59;;;;;;;9.55;3.67;;;;;;;;;;4990746;28;20105;-62
2022/11/18 03:20:06;;;;;;;11.38;3.97;;;;;;;;;;4989056;28;20046;-61
2022/11/18 03:22:41;;;;;;;8.30;3.70;;;;;;;;;;4982196;28;20093;-60
2022/11/18 03:25:09;;;;;;;7.85;3.40;;;;;;;;;;4987509;28;20049;-62
2022/11/18 03:27:44;;;;;;;9.50;3.70;;;;;;;;;;4986688;28;20427;-62
2022/11/18 03:30:14;;;;;;;10.20;3.75;;;;;;;;;;4977649;28;20039;-60
2022/11/18 03:32:44;;;;;;;9.80;4.10;;;;;;;;;;4981337;28;20101;-62
2022/11/18 03:35:22;;;;;;;7.63;3.70;;;;;;;;;;4974300;28;20043;-61
2022/11/18 03:37:51;;;;;;;9.05;3.83;;;;;;;;;;4974204;28;20031;-60
2022/11/18 03:40:28;;;;;;;12.82;3.90;;;;;;;;;;4988957;28;20029;-61
2022/11/18 03:43:02;;;;;;;7.43;3.35;;;;;;;;;;4989099;28;20038;-61
2022/11/18 03:45:36;;;;;;;10.82;3.50;;;;;;;;;;4991151;28;20031;-61
2022/11/18 03:48:08;;;;;;;8.80;3.60;;;;;;;;;;4988356;28;20039;-61
2022/11/18 03:50:40;;;;;;;7.43;3.45;;;;;;;;;;4983183;28;20034;-60
2022/11/18 03:53:07;;;;;;;8.32;3.63;;;;;;;;;;4990374;28;20088;-61
2022/11/18 03:55:38;;;;;;;7.75;3.35;;;;;;;;;;4972457;28;20030;-61
2022/11/18 03:58:09;;;;;;;8.35;3.47;;;;;;;;;;4975101;28;20035;-60
2022/11/18 04:00:47;;;;;;;7.10;3.30;;;;;;;;;;4987011;28;20115;-62
2022/11/18 04:03:13;;;;;;;8.13;3.35;;;;;;;;;;4974188;28;20042;-61
2022/11/18 04:05:41;;;;;;;6.07;3.20;;;;;;;;;;4989119;28;20100;-61
2022/11/18 04:08:12;;;;;;;6.10;3.22;;;;;;;;;;4991811;28;20054;-60
2022/11/18 04:14:08;;;;;;;7.53;3.30;;;;;;;;;;4974187;28;20459;-61
2022/11/18 04:16:42;;;;;;;9.57;3.22;;;;;;;;;;5017826;28;20034;-62
2022/11/18 04:19:08;;;;;;;7.95;3.50;;;;;;;;;;4992322;28;20483;-61
2022/11/18 04:21:33;;;;;;;10.63;3.33;;;;;;;;;;4983718;28;20058;-61
2022/11/18 04:23:59;;;;;;;6.43;3.17;;;;;;;;;;4991092;28;20034;-61
2022/11/18 04:26:24;;;;;;;7.80;3.50;;;;;;;;;;4985397;28;20459;-62
2022/11/18 04:28:49;;;;;;;6.03;3.03;;;;;;;;;;4991375;28;20030;-60
2022/11/18 04:31:15;;;;;;;8.30;3.70;;;;;;;;;;4973492;28;20030;-61
2022/11/18 04:33:40;;;;;;;7.95;3.60;;;;;;;;;;4973133;28;20089;-61
2022/11/18 04:36:06;;;;;;;7.30;3.50;;;;;;;;;;4972339;28;20038;-62
2022/11/18 04:38:31;;;;;;;7.10;3.33;;;;;;;;;;4980633;28;20464;-62
2022/11/18 04:40:56;;;;;;;7.00;3.58;;;;;;;;;;4977658;28;20460;-61
2022/11/18 04:43:22;;;;;;;7.30;3.53;;;;;;;;;;4989082;28;20122;-59
2022/11/18 04:45:47;;;;;;;10.25;3.83;;;;;;;;;;4984226;28;20112;-62
2022/11/18 04:48:13;;;;;;;11.82;3.55;;;;;;;;;;4985903;28;20038;-63
2022/11/18 04:50:38;;;;;;;8.18;3.60;;;;;;;;;;4979670;28;20035;-61
2022/11/18 04:53:04;;;;;;;8.55;4.00;;;;;;;;;;4987726;28;20057;-60
2022/11/18 04:55:29;;;;;;;9.68;4.00;;;;;;;;;;4987568;28;20042;-60
2022/11/18 04:57:54;;;;;;;12.30;3.92;;;;;;;;;;4981382;28;20109;-60
2022/11/18 05:00:21;;;;;;;7.47;4.13;;;;;;;;;;4987256;28;20046;-60
2022/11/18 05:02:47;;;;;;;13.30;4.22;;;;;;;;;;4988396;28;20859;-60
2022/11/18 05:05:13;;;;;;;6.70;3.83;;;;;;;;;;5009015;28;20034;-62
2022/11/18 05:07:38;;;;;;;9.25;4.10;;;;;;;;;;4990778;28;20539;-62
2022/11/18 05:10:04;;;;;;;9.82;3.83;;;;;;;;;;4989551;28;20069;-62
2022/11/18 05:12:48;;;;;;;9.23;4.15;;;;;;;;;;4985760;28;20031;-62
2022/11/18 05:15:17;;;;;;;13.02;4.40;;;;;;;;;;4976473;28;20041;-61
2022/11/18 05:17:43;;;;;;;10.18;4.20;;;;;;;;;;4990775;28;20048;-61
2022/11/18 05:20:09;;;;;;;7.75;3.92;;;;;;;;;;4990456;28;20038;-60
2022/11/18 05:22:35;;;;;;;9.25;4.53;;;;;;;;;;4991541;28;20034;-60
2022/11/18 05:25:00;;;;;;;11.02;4.45;;;;;;;;;;4988269;28;20125;-61
2022/11/18 05:27:25;;;;;;;11.25;4.45;;;;;;;;;;4982658;28;20034;-61
2022/11/18 05:29:51;;;;;;;12.82;4.68;;;;;;;;;;4980555;28;20038;-60
2022/11/18 05:32:17;;;;;;;10.13;4.68;;;;;;;;;;5020589;28;20034;-60
2022/11/18 05:34:42;;;;;;;9.60;4.88;;;;;;;;;;4971223;28;20089;-61
2022/11/18 05:37:08;;;;;;;13.52;5.20;;;;;;;;;;4977554;28;20030;-61
2022/11/18 05:39:34;;;;;;;10.77;5.07;;;;;;;;;;4980912;28;20027;-61
2022/11/18 05:44:44;;;;;;;11.13;4.50;;;;;;;;;;4975815;28;20069;-60
2022/11/18 05:47:10;;;;;;;12.68;5.25;;;;;;;;;;4983320;28;20089;-61
2022/11/18 05:49:35;;;;;;;10.43;5.10;;;;;;;;;;4973251;28;20046;-60
2022/11/18 05:52:01;;;;;;;12.02;4.90;;;;;;;;;;4973617;28;20045;-60
2022/11/18 05:54:26;;;;;;;13.60;5.05;;;;;;;;;;4971847;28;20034;-60
2022/11/18 05:56:52;;;;;;;10.50;5.05;;;;;;;;;;4982471;28;20027;-60
2022/11/18 05:59:17;;;;;;;16.90;5.32;;;;;;;;;;4992681;28;20042;-61
2022/11/18 06:02:00;;;;;;;12.20;4.90;;;;;;;;;;4986096;28;20061;-62
2022/11/18 06:04:38;;;;;;;11.32;4.43;;;;;;;;;;4983198;28;20066;-62
2022/11/18 06:07:14;;;;;;;12.23;4.60;;;;;;;;;;4984138;28;20440;-61
2022/11/18 06:09:44;;;;;;;11.68;4.75;;;;;;;;;;4992019;28;20030;-60
2022/11/18 06:12:14;;;;;;;9.40;4.40;;;;;;;;;;4992018;28;20038;-60
2022/11/18 06:14:48;;;;;;;11.15;4.72;;;;;;;;;;4991018;28;20060;-60
2022/11/18 06:17:19;;;;;;;15.30;4.43;;;;;;;;;;4982142;28;20492;-61
2022/11/18 06:19:44;;;;;;;;;;;;;;;;;;4978489;28;20070;-61
2022/11/18 06:22:10;;;;;;;15.25;5.50;;;;;;;;;;4990845;28;19952;-61
2022/11/18 06:24:36;;;;;;;12.15;5.50;;;;;;;;;;5015568;28;20035;-63
2022/11/18 06:27:01;;;;;;;13.98;5.68;;;;;;;;;;4977139;28;20396;-62
2022/11/18 06:29:29;;;;;;;10.60;5.50;;;;;;;;;;4990236;28;20035;-64
2022/11/18 06:31:55;;;;;;;15.50;5.82;;;;;;;;;;4991095;28;20045;-63
2022/11/18 06:34:21;;;;;;;15.27;6.75;;;;;;;;;;4983446;28;20070;-63
2022/11/18 06:36:47;;;;;;;13.68;5.68;;;;;;;;;;4971536;28;20034;-64
2022/11/18 06:39:12;;;;;;;12.90;5.63;;;;;;;;;;4977778;28;20043;-62
2022/11/18 06:41:37;;;;;;;12.35;5.32;;;;;;;;;;4972558;28;20129;-62
2022/11/18 06:44:03;;;;;;;15.68;6.10;;;;;;;;;;4971955;28;20073;-62
2022/11/18 06:49:12;;;;;;;15.68;5.97;;;;;;;;;;4984278;28;20191;-61
2022/11/18 06:51:38;;;;;;;19.10;7.60;;;;;;;;;;4991206;28;20030;-61
2022/11/18 06:54:04;;;;;;;14.55;6.82;;;;;;;;;;5018752;28;20030;-63
2022/11/18 06:56:30;;;;;;;14.43;7.38;;;;;;;;;;4990340;28;20463;-62
2022/11/18 06:58:57;;;;;;;17.27;7.75;;;;;;;;;;4983625;28;20043;-63
2022/11/18 07:01:25;;;;;;;20.02;8.80;;;;;;;;;;4981324;28;20034;-63
2022/11/18 07:03:51;;;;;;;19.20;7.82;;;;;;;;;;4991480;28;20471;-62
2022/11/18 07:06:19;;;;;;;17.05;7.72;;;;;;;;;;4990866;28;20041;-61
2022/11/18 07:08:45;;;;;;;14.70;8.05;;;;;;;;;;4990318;28;20049;-61
2022/11/18 07:11:13;;;;;;;18.15;8.68;;;;;;;;;;4993631;28;20026;-61
2022/11/18 07:13:40;;;;;;;20.13;9.90;;;;;;;;;;4978255;28;20126;-61
2022/11/18 07:16:11;;;;;;;21.38;11.18;;;;;;;;;;4974662;28;20035;-62
2022/11/18 07:18:38;;;;;;;22.25;11.02;;;;;;;;;;4982793;28;20033;-61
2022/11/18 07:21:06;;;;;;;25.23;13.93;;;;;;;;;;4975998;28;20034;-61
2022/11/18 07:23:33;;;;;;;21.60;12.35;;;;;;;;;;4979624;28;20482;-61
2022/11/18 07:25:58;;;;;;;22.35;12.07;;;;;;;;;;4995777;28;20107;-62
2022/11/18 07:28:24;;;;;;;22.30;12.10;;;;;;;;;;4992545;28;20023;-63
2022/11/18 07:30:50;;;;;;;27.83;12.25;;;;;;;;;;4977846;28;20047;-62
2022/11/18 07:33:16;;;;;;;25.77;12.60;;;;;;;;;;4974016;28;20038;-62
2022/11/18 07:35:41;;;;;;;26.58;13.73;;;;;;;;;;4981839;28;20076;-63
2022/11/18 07:38:06;;;;;;;25.08;12.60;;;;;;;;;;4985055;28;20037;-63
2022/11/18 07:40:32;;;;;;;26.95;13.13;;;;;;;;;;4977139;28;20030;-62
2022/11/18 07:42:57;;;;;;;27.70;13.82;;;;;;;;;;4975383;28;20035;-61
2022/11/18 07:45:23;;;;;;;26.80;13.48;;;;;;;;;;4977965;28;20126;-62
2022/11/18 07:47:48;;;;;;;25.85;12.98;;;;;;;;;;4980550;28;20443;-63
2022/11/18 07:50:15;;;;;;;28.67;13.43;;;;;;;;;;4994083;28;20030;-63
2022/11/18 07:52:40;;;;;;;23.42;12.55;;;;;;;;;;4991650;28;20031;-61
2022/11/18 07:55:06;;;;;;;21.73;12.15;;;;;;;;;;4994717;28;20113;-64
2022/11/18 07:57:32;;;;;;;23.23;12.45;;;;;;;;;;4987889;28;20019;-62
2022/11/18 07:59:57;;;;;;;23.48;11.73;;;;;;;;;;4974196;28;20479;-63
2022/11/18 08:02:22;;;;;;;24.05;11.63;;;;;;;;;;4987768;28;20108;-63
2022/11/18 08:04:48;;;;;;;22.88;10.70;;;;;;;;;;4977616;28;20046;-61
2022/11/18 08:07:13;;;;;;;19.10;10.18;;;;;;;;;;4975041;28;20030;-63
2022/11/18 08:09:39;;;;;;;24.20;10.50;;;;;;;;;;4987898;28;20481;-63
2022/11/18 08:12:04;;;;;;;19.92;10.50;;;;;;;;;;4993765;28;20026;-63
2022/11/18 08:14:30;;;;;;;19.65;9.30;;;;;;;;;;4973893;28;20038;-64
2022/11/18 08:16:56;;;;;;;16.60;8.93;;;;;;;;;;4971756;28;20184;-62
2022/11/18 08:19:21;;;;;;;16.75;8.38;;;;;;;;;;4981777;28;20039;-62
2022/11/18 08:21:46;;;;;;;15.55;7.60;;;;;;;;;;4991329;28;20019;-61
2022/11/18 08:24:12;;;;;;;13.13;7.05;;;;;;;;;;4989681;28;20395;-61
2022/11/18 08:26:37;;;;;;;13.73;6.60;;;;;;;;;;4998771;28;20030;-61
2022/11/18 08:29:03;;;;;;;15.50;6.80;;;;;;;;;;4991609;28;20133;-61
2022/11/18 08:31:29;;;;;;;12.95;6.05;;;;;;;;;;4993278;28;20030;-61
2022/11/18 08:33:56;;;;;;;12.63;5.65;;;;;;;;;;4988046;28;20030;-60
2022/11/18 08:36:25;;;;;;;13.77;5.50;;;;;;;;;;4995870;28;20026;-60
2022/11/18 08:38:50;;;;;;;12.05;5.60;;;;;;;;;;4995308;28;20075;-61
2022/11/18 08:41:33;;;;;;;14.52;5.75;;;;;;;;;;4985656;28;20038;-62
2022/11/18 08:44:00;;;;;;;10.18;5.00;;;;;;;;;;4993672;28;20038;-62
2022/11/18 08:46:25;;;;;;;13.85;5.50;;;;;;;;;;4992027;28;20042;-63
2022/11/18 08:48:51;;;;;;;11.00;5.28;;;;;;;;;;4992968;28;20435;-62
2022/11/18 08:51:16;;;;;;;15.93;5.57;;;;;;;;;;4991463;28;20392;-61
2022/11/18 08:53:41;;;;;;;14.10;5.78;;;;;;;;;;4991622;28;20042;-62
2022/11/18 08:56:13;;;;;;;13.07;5.63;;;;;;;;;;4992068;28;20053;-60
2022/11/18 08:58:40;;;;;;;9.85;5.00;;;;;;;;;;4985865;28;20122;-62
2022/11/18 09:01:06;;;;;;;12.80;5.47;;;;;;;;;;4973609;28;20030;-61
2022/11/18 09:03:32;;;;;;;10.18;5.28;;;;;;;;;;4978309;28;20031;-63
2022/11/18 09:06:08;;;;;;;12.55;5.68;;;;;;;;;;4990312;28;20039;-63
2022/11/18 09:08:34;;;;;;;12.48;5.80;;;;;;;;;;4989884;28;20092;-66
2022/11/18 09:11:05;;;;;;;14.15;6.18;;;;;;;;;;4989274;28;20472;-64
2022/11/18 09:13:30;;;;;;;;;;;;;;;;;;4990951;28;20045;-65
2022/11/18 09:15:59;;;;;;;15.02;6.47;;;;;;;;;;4992490;28;20079;-66
2022/11/18 09:18:25;;;;;;;11.15;6.05;;;;;;;;;;4996496;28;20031;-64
2022/11/18 09:21:02;;;;;;;11.85;6.28;;;;;;;;;;4986003;28;20121;-67
2022/11/18 09:23:27;;;;;;;19.02;6.60;;;;;;;;;;4991752;28;20073;-67
2022/11/18 09:26:01;;;;;;;13.32;6.75;;;;;;;;;;4992468;28;20117;-66
2022/11/18 09:28:27;;;;;;;13.77;6.65;;;;;;;;;;4987969;28;20035;-66
2022/11/18 09:30:52;;;;;;;16.75;6.93;;;;;;;;;;4988744;28;20145;-63
2022/11/18 09:33:18;;;;;;;14.90;6.78;;;;;;;;;;4978358;28;20056;-64
2022/11/18 09:35:43;;;;;;;16.48;7.20;;;;;;;;;;4990716;28;20041;-64
2022/11/18 09:38:09;;;;;;;12.43;7.07;;;;;;;;;;4989021;28;20074;-66
2022/11/18 09:40:48;;;;;;;15.73;7.20;;;;;;;;;;4978318;28;20038;-63
2022/11/18 09:43:26;;;;;;;13.77;7.28;;;;;;;;;;4980797;28;20042;-66
2022/11/18 09:45:58;;;;;;;12.65;6.60;;;;;;;;;;4981351;28;20031;-68
2022/11/18 09:49:11;;;;;;;12.20;6.50;;;;;;;;;;4985942;28;20134;-66
2022/11/18 09:51:12;;;;;;;14.93;6.35;;;;;;;;;;4979268;28;20039;-63
2022/11/18 09:53:43;;;;;;;12.23;6.07;;;;;;;;;;4972002;28;20030;-66
2022/11/18 09:56:14;;;;;;;9.55;5.90;;;;;;;;;;4990916;28;20081;-66
2022/11/18 09:58:39;;;;;;;13.63;6.15;;;;;;;;;;4986123;28;20053;-65
2022/11/18 10:01:16;;;;;;;10.85;5.60;;;;;;;;;;4972161;28;20035;-65
2022/11/18 10:03:42;;;;;;;11.48;6.25;;;;;;;;;;4977245;28;20035;-66
2022/11/18 10:06:08;;;;;;;11.60;6.53;;;;;;;;;;4988084;28;20031;-66
2022/11/18 10:08:45;;;;;;;13.60;6.15;;;;;;;;;;4971391;28;20467;-67
2022/11/18 10:11:22;;;;;;;16.05;6.47;;;;;;;;;;4981939;28;20034;-66
2022/11/18 10:14:00;;;;;;;16.40;6.57;;;;;;;;;;4988456;28;20038;-66
2022/11/18 10:16:47;;;;;;;9.48;6.18;;;;;;;;;;4984336;28;20034;-66
2022/11/18 10:19:26;;;;;;;13.77;6.10;;;;;;;;;;4975223;28;20038;-66
2022/11/18 10:22:09;;;;;;;13.18;6.82;;;;;;;;;;4982065;28;20479;-66
2022/11/18 10:24:41;;;;;;;12.40;6.70;;;;;;;;;;4989063;28;20368;-66
2022/11/18 10:27:12;;;;;;;13.82;6.65;;;;;;;;;;4989596;28;20029;-65
2022/11/18 10:29:38;;;;;;;13.05;6.78;;;;;;;;;;4971084;28;20035;-65
2022/11/18 10:32:06;;;;;;;11.60;6.60;;;;;;;;;;4971148;28;20035;-65
2022/11/18 10:34:34;;;;;;;15.32;7.13;;;;;;;;;;4971938;28;20038;-66
2022/11/18 10:37:20;;;;;;;14.63;8.63;;;;;;;;;;4976855;28;20098;-63
2022/11/18 10:39:57;;;;;;;14.52;7.60;;;;;;;;;;4982635;28;20765;-65
2022/11/18 10:42:47;;;;;;;16.63;8.23;;;;;;;;;;4992437;28;20089;-65
2022/11/18 10:45:21;;;;;;;13.57;7.68;;;;;;;;;;4990074;28;20038;-63
2022/11/18 10:48:00;;;;;;;18.52;7.80;;;;;;;;;;4994464;28;20038;-63
2022/11/18 10:50:40;;;;;;;12.95;7.65;;;;;;;;;;4994710;28;20065;-63
2022/11/18 10:53:30;;;;;;;16.10;8.40;;;;;;;;;;4994301;28;20038;-63
2022/11/18 10:56:01;;;;;;;15.63;9.20;;;;;;;;;;4976400;28;20037;-62
2022/11/18 10:58:31;;;;;;;16.67;8.18;;;;;;;;;;4988155;28;20129;-62
2022/11/18 11:01:23;;;;;;;18.23;11.07;;;;;;;;;;4986972;28;20038;-64
2022/11/18 11:04:00;;;;;;;14.10;9.48;;;;;;;;;;4975301;28;20420;-62
2022/11/18 11:06:26;;;;;;;15.43;8.85;;;;;;;;;;4988914;28;20038;-64
2022/11/18 11:08:57;;;;;;;14.60;8.60;;;;;;;;;;4990326;28;20073;-65
2022/11/18 11:11:33;;;;;;;12.75;7.35;;;;;;;;;;4992354;28;20121;-62
2022/11/18 11:14:19;;;;;;;13.75;7.75;;;;;;;;;;4983608;28;20475;-63
2022/11/18 11:16:52;;;;;;;14.32;8.48;;;;;;;;;;4975050;28;20476;-63
2022/11/18 11:19:21;;;;;;;11.95;7.15;;;;;;;;;;4987484;28;20046;-62
2022/11/18 11:21:47;;;;;;;13.70;8.40;;;;;;;;;;4974946;28;20027;-62
2022/11/18 11:24:12;;;;;;;11.98;8.23;;;;;;;;;;4992517;28;20457;-62
2022/11/18 11:26:57;;;;;;;13.77;7.75;;;;;;;;;;4994769;28;20535;-62
2022/11/18 11:29:31;;;;;;;12.20;7.28;;;;;;;;;;4988245;28;20042;-61
2022/11/18 11:32:25;;;;;;;11.85;6.40;;;;;;;;;;4980585;28;20041;-62
2022/11/18 11:35:04;;;;;;;12.45;6.68;;;;;;;;;;4986165;28;20472;-61
2022/11/18 11:38:10;;;;;;;11.65;6.60;;;;;;;;;;4974224;28;20065;-62
2022/11/18 11:40:49;;;;;;;8.88;5.53;;;;;;;;;;5005913;28;20460;-62
2022/11/18 11:43:42;;;;;;;10.65;6.00;;;;;;;;;;4998465;28;20124;-63
2022/11/18 11:46:21;;;;;;;13.25;5.63;;;;;;;;;;5002691;28;20030;-63
2022/11/18 11:48:46;;;;;;;12.95;6.00;;;;;;;;;;4991578;28;20157;-65
2022/11/18 11:51:43;;;;;;;11.10;5.90;;;;;;;;;;4994932;28;20387;-66
2022/11/18 11:54:20;;;;;;;12.60;6.80;;;;;;;;;;4990922;28;20125;-64
2022/11/18 11:56:46;;;;;;;11.73;5.85;;;;;;;;;;4992580;28;20034;-64
2022/11/18 11:59:29;;;;;;;9.18;5.10;;;;;;;;;;4993964;28;20137;-64
2022/11/18 12:02:16;;;;;;;11.27;5.65;;;;;;;;;;4992460;28;20073;-63
2022/11/18 12:04:50;;;;;;;11.82;5.32;;;;;;;;;;4974263;28;20030;-65
2022/11/18 12:07:22;;;;;;;8.68;4.95;;;;;;;;;;4990109;28;20030;-64
2022/11/18 12:10:02;;;;;;;10.75;5.40;;;;;;;;;;4978379;28;20105;-64
2022/11/18 12:12:37;;;;;;;10.65;6.10;;;;;;;;;;4978744;28;20117;-65
2022/11/18 12:15:39;;;;;;;9.70;5.38;;;;;;;;;;4984672;28;20046;-64
2022/11/18 12:18:34;;;;;;;9.50;5.00;;;;;;;;;;4978264;28;20026;-65
2022/11/18 12:20:59;;;;;;;14.45;5.07;;;;;;;;;;4983427;28;20062;-65
2022/11/18 12:23:27;;;;;;;7.90;4.28;;;;;;;;;;4986136;28;20094;-64
2022/11/18 12:26:01;;;;;;;9.45;4.22;;;;;;;;;;4984077;28;20038;-65
2022/11/18 12:28:41;;;;;;;11.20;4.25;;;;;;;;;;4987887;28;20050;-65
2022/11/18 12:31:22;;;;;;;7.40;4.30;;;;;;;;;;4975890;28;20058;-63
2022/11/18 12:33:53;;;;;;;8.30;4.10;;;;;;;;;;4988914;28;20407;-64
2022/11/18 12:36:25;;;;;;;10.18;4.30;;;;;;;;;;4978331;28;20062;-65
2022/11/18 12:38:51;;;;;;;9.32;4.40;;;;;;;;;;4985963;28;20026;-65
2022/11/18 12:44:48;;;;;;;14.77;6.72;;;;;;;;;;4977412;28;20126;-64
2022/11/18 12:47:15;;;;;;;11.35;5.07;;;;;;;;;;4981983;28;20063;-64
2022/11/18 12:49:43;;;;;;;9.52;5.20;;;;;;;;;;4980437;28;20034;-65
2022/11/18 12:52:27;;;;;;;11.82;4.97;;;;;;;;;;4980431;28;20030;-64
2022/11/18 12:54:54;;;;;;;11.48;5.82;;;;;;;;;;4982644;28;20054;-65
2022/11/18 12:57:26;;;;;;;10.93;5.57;;;;;;;;;;4982158;28;20125;-63
2022/11/18 12:59:51;;;;;;;10.27;5.50;;;;;;;;;;4980438;28;20050;-63
2022/11/18 13:02:22;;;;;;;10.75;6.75;;;;;;;;;;4978754;28;20093;-63
2022/11/18 13:05:10;;;;;;;15.50;6.18;;;;;;;;;;4987712;28;20053;-65
2022/11/18 13:10:37;;;;;;;20.92;11.07;;;;;;;;;;4986314;28;20084;-66
2022/11/18 13:13:03;;;;;;;15.35;7.50;;;;;;;;;;4991253;28;20045;-66
2022/11/18 13:18:19;;;;;;;12.02;6.47;;;;;;;;;;4973561;28;20248;-65
2022/11/18 13:20:58;;;;;;;13.70;7.50;;;;;;;;;;4971841;28;20484;-65
2022/11/18 13:26:31;;;;;;;11.73;6.28;;;;;;;;;;4987647;28;20045;-64
2022/11/18 13:29:02;;;;;;;13.02;6.53;;;;;;;;;;4977568;28;20476;-63
2022/11/18 13:31:33;;;;;;;;;;;;;;;;;;4971192;28;20085;-63
2022/11/18 13:34:02;;;;;;;;;;;;;;;;;;4987648;28;19918;-64
2022/11/18 13:36:30;;;;;;;11.68;7.35;;;;;;;;;;4981715;28;19925;-64
2022/11/18 13:39:00;;;;;;;15.65;7.32;;;;;;;;;;4972506;28;20138;-64
2022/11/18 13:41:36;;;;;;;16.08;6.68;;;;;;;;;;4979409;28;20065;-63
2022/11/18 13:44:15;;;;;;;13.57;7.30;;;;;;;;;;4971635;28;20052;-66
2022/11/18 13:46:42;;;;;;;11.35;6.22;;;;;;;;;;4971522;28;20030;-64
2022/11/18 13:49:14;;;;;;;15.25;6.53;;;;;;;;;;4978383;28;20054;-62
2022/11/18 13:51:40;;;;;;;9.02;5.78;;;;;;;;;;4970378;28;20032;-64
2022/11/18 13:54:09;;;;;;;11.25;6.38;;;;;;;;;;4971872;28;20411;-64
2022/11/18 13:56:34;;;;;;;13.02;6.70;;;;;;;;;;4974896;28;20070;-63
2022/11/18 13:59:01;;;;;;;10.68;5.78;;;;;;;;;;4981535;28;20495;-63
2022/11/18 14:01:32;;;;;;;12.13;5.78;;;;;;;;;;4972014;28;20082;-63
2022/11/18 14:04:03;;;;;;;;;;;;;;;;;;4982500;28;20403;-63
2022/11/18 14:06:36;;;;;;;9.60;4.93;;;;;;;;;;4974941;28;19988;-64
2022/11/18 14:09:17;;;;;;;14.38;6.50;;;;;;;;;;4991210;28;20034;-63
2022/11/18 14:11:44;;;;;;;13.15;5.75;;;;;;;;;;4979210;28;20430;-64
2022/11/18 14:14:13;;;;;;;12.00;5.47;;;;;;;;;;4974252;28;20114;-64
2022/11/18 14:16:40;;;;;;;9.82;5.63;;;;;;;;;;4972154;28;20407;-64
2022/11/18 14:19:11;;;;;;;10.60;5.68;;;;;;;;;;4981360;28;20631;-65
2022/11/18 14:21:37;;;;;;;10.30;5.28;;;;;;;;;;4984843;28;20471;-65
2022/11/18 14:24:03;;;;;;;13.85;5.78;;;;;;;;;;4974886;28;20039;-65
2022/11/18 14:26:31;;;;;;;11.05;5.65;;;;;;;;;;4983005;28;20034;-65
2022/11/18 14:29:13;;;;;;;11.85;6.03;;;;;;;;;;4971794;28;20039;-63
2022/11/18 14:31:38;;;;;;;13.07;5.65;;;;;;;;;;4970790;28;20073;-64
2022/11/18 14:34:24;;;;;;;13.45;6.68;;;;;;;;;;4971618;28;20504;-64
2022/11/18 14:36:51;;;;;;;12.02;6.10;;;;;;;;;;4975740;28;20498;-64
2022/11/18 14:39:28;;;;;;;10.02;5.30;;;;;;;;;;4971868;28;20388;-65
2022/11/18 14:41:55;;;;;;;11.98;5.47;;;;;;;;;;4971708;28;20045;-65
2022/11/18 14:44:22;;;;;;;14.10;5.95;;;;;;;;;;4974730;28;20034;-65
2022/11/18 14:46:54;;;;;;;11.05;5.70;;;;;;;;;;4972517;28;20069;-64
2022/11/18 14:49:22;;;;;;;12.70;5.78;;;;;;;;;;4976035;28;20464;-65
2022/11/18 14:51:47;;;;;;;11.90;5.97;;;;;;;;;;4978708;28;20399;-64
2022/11/18 14:54:15;;;;;;;14.73;5.95;;;;;;;;;;4971631;28;20484;-66
2022/11/18 14:56:41;;;;;;;14.98;6.43;;;;;;;;;;4973438;28;20058;-67
2022/11/18 14:59:11;;;;;;;12.43;6.03;;;;;;;;;;5013583;28;20125;-65
2022/11/18 15:01:36;;;;;;;12.00;6.95;;;;;;;;;;4990643;28;20391;-65
2022/11/18 15:04:02;;;;;;;17.08;8.48;;;;;;;;;;4974429;28;20037;-65
2022/11/18 15:06:27;;;;;;;14.98;7.82;;;;;;;;;;4981483;28;20030;-64
2022/11/18 15:08:53;;;;;;;14.32;8.70;;;;;;;;;;4974006;28;20042;-64
2022/11/18 15:11:18;;;;;;;17.58;9.32;;;;;;;;;;4974430;28;20081;-63
2022/11/18 15:13:44;;;;;;;23.33;12.45;;;;;;;;;;4986363;28;20530;-64
2022/11/18 15:16:24;;;;;;;21.55;12.50;;;;;;;;;;5005154;28;20042;-64
2022/11/18 15:18:53;;;;;;;21.75;12.75;;;;;;;;;;4976365;28;20038;-64
2022/11/18 15:21:19;;;;;;;21.05;13.52;;;;;;;;;;4979556;28;20480;-64